Time;durP1;ratioP1;P1;durP2;ratioP2;P2;SDS_P1;SDS_P2;PMS_P1;PMS_P2;Temp;Humidity;BMP_temperature;BMP_pressure;BME280_temperature;BME280_humidity;BME280_pressure;Samples;Min_cycle;Max_cycle;Signal;HPM_P1;HPM_P2
2022/05/08 00:00:05;;;;;;;20.40;7.07;;;;;;;;;;5014946;28;20963;-83
2022/05/08 00:02:31;;;;;;;30.05;8.95;;;;;;;;;;5017175;28;20962;-81
2022/05/08 00:04:57;;;;;;;22.30;7.50;;;;;;;;;;5019459;28;20461;-83
2022/05/08 00:07:25;;;;;;;19.75;6.70;;;;;;;;;;5013553;28;20460;-81
2022/05/08 00:09:51;;;;;;;16.27;6.70;;;;;;;;;;5018226;28;20432;-83
2022/05/08 00:12:18;;;;;;;19.67;6.50;;;;;;;;;;5017922;28;20957;-81
2022/05/08 00:14:45;;;;;;;23.60;7.22;;;;;;;;;;5016123;28;20869;-79
2022/05/08 00:17:11;;;;;;;21.65;6.90;;;;;;;;;;5019202;28;20459;-81
2022/05/08 00:19:38;;;;;;;19.55;6.50;;;;;;;;;;5021247;28;20421;-83
2022/05/08 00:22:05;;;;;;;19.95;7.55;;;;;;;;;;5019945;28;20433;-83
2022/05/08 00:24:33;;;;;;;19.77;6.10;;;;;;;;;;5018437;28;20780;-82
2022/05/08 00:26:59;;;;;;;20.20;6.10;;;;;;;;;;5017457;28;20502;-82
2022/05/08 00:29:25;;;;;;;15.53;5.50;;;;;;;;;;5019914;28;20514;-83
2022/05/08 00:31:52;;;;;;;14.60;5.07;;;;;;;;;;5015538;28;20428;-82
2022/05/08 00:34:18;;;;;;;17.10;6.13;;;;;;;;;;5017565;28;20968;-82
2022/05/08 00:36:44;;;;;;;16.83;6.07;;;;;;;;;;5016949;28;20432;-81
2022/05/08 00:39:11;;;;;;;15.10;6.25;;;;;;;;;;5016973;28;20431;-82
2022/05/08 00:41:38;;;;;;;19.55;6.57;;;;;;;;;;5016402;28;20451;-82
2022/05/08 00:44:05;;;;;;;16.30;6.10;;;;;;;;;;5015203;28;20437;-82
2022/05/08 00:46:31;;;;;;;19.10;5.65;;;;;;;;;;5017139;28;20438;-82
2022/05/08 00:48:57;;;;;;;17.65;5.68;;;;;;;;;;5018649;28;20417;-82
2022/05/08 00:51:24;;;;;;;21.50;6.43;;;;;;;;;;5021338;28;20426;-82
2022/05/08 00:53:51;;;;;;;14.87;6.10;;;;;;;;;;5019431;28;20428;-83
2022/05/08 00:56:19;;;;;;;18.83;6.03;;;;;;;;;;5017224;28;20471;-82
2022/05/08 00:58:48;;;;;;;16.90;5.43;;;;;;;;;;5017626;28;20784;-81
2022/05/08 01:01:15;;;;;;;11.48;5.32;;;;;;;;;;5015290;28;20444;-81
2022/05/08 01:03:41;;;;;;;15.37;5.80;;;;;;;;;;5018069;28;20446;-82
2022/05/08 01:06:08;;;;;;;14.90;5.53;;;;;;;;;;5020516;28;20842;-83
2022/05/08 01:08:35;;;;;;;13.65;5.50;;;;;;;;;;5018025;28;20798;-81
2022/05/08 01:11:02;;;;;;;18.10;6.23;;;;;;;;;;5020248;28;20424;-83
2022/05/08 01:13:28;;;;;;;13.57;6.20;;;;;;;;;;5017209;28;20427;-82
2022/05/08 01:15:56;;;;;;;14.65;6.22;;;;;;;;;;5016471;28;20447;-82
2022/05/08 01:18:22;;;;;;;14.40;5.78;;;;;;;;;;5016359;28;20425;-82
2022/05/08 01:20:50;;;;;;;15.60;6.00;;;;;;;;;;5021133;28;20976;-82
2022/05/08 01:23:19;;;;;;;11.52;4.85;;;;;;;;;;5019107;28;20431;-82
2022/05/08 01:25:46;;;;;;;17.23;6.40;;;;;;;;;;5019444;28;20427;-81
2022/05/08 01:28:12;;;;;;;14.48;5.55;;;;;;;;;;5016732;28;20429;-82
2022/05/08 01:30:39;;;;;;;14.55;5.40;;;;;;;;;;5017492;28;20829;-81
2022/05/08 01:33:05;;;;;;;13.00;5.90;;;;;;;;;;5017354;28;20483;-83
2022/05/08 01:35:32;;;;;;;16.67;5.80;;;;;;;;;;5021418;28;20857;-82
2022/05/08 01:37:58;;;;;;;18.52;5.93;;;;;;;;;;5017332;28;20440;-81
2022/05/08 01:40:25;;;;;;;18.92;6.78;;;;;;;;;;5020535;28;20435;-83
2022/05/08 01:42:52;;;;;;;16.43;6.30;;;;;;;;;;5016687;28;20980;-81
2022/05/08 01:45:18;;;;;;;16.88;6.22;;;;;;;;;;5020479;28;20465;-82
2022/05/08 01:50:28;;;;;;;15.88;6.28;;;;;;;;;;5023114;28;20462;-82
2022/05/08 01:52:55;;;;;;;18.90;6.55;;;;;;;;;;5021810;28;20411;-82
2022/05/08 01:55:21;;;;;;;16.50;7.00;;;;;;;;;;5061464;23;20433;-82
2022/05/08 01:57:49;;;;;;;13.32;5.85;;;;;;;;;;5027786;28;20424;-81
2022/05/08 02:00:15;;;;;;;14.10;6.40;;;;;;;;;;5024314;28;20440;-80
2022/05/08 02:02:43;;;;;;;16.20;5.70;;;;;;;;;;5029104;28;20433;-81
2022/05/08 02:05:09;;;;;;;19.63;6.40;;;;;;;;;;5025094;28;20432;-80
2022/05/08 02:07:36;;;;;;;13.70;5.80;;;;;;;;;;5026133;28;20463;-80
2022/05/08 02:10:03;;;;;;;11.30;5.90;;;;;;;;;;5024560;28;20436;-80
2022/05/08 02:12:29;;;;;;;15.40;5.90;;;;;;;;;;5028955;28;20435;-80
2022/05/08 02:14:56;;;;;;;12.18;5.82;;;;;;;;;;5025477;28;20435;-80
2022/05/08 02:17:23;;;;;;;15.50;5.85;;;;;;;;;;5023691;28;20445;-80
2022/05/08 02:19:49;;;;;;;14.88;6.53;;;;;;;;;;5025348;28;20459;-80
2022/05/08 02:22:15;;;;;;;17.95;5.90;;;;;;;;;;5022164;28;20436;-80
2022/05/08 02:24:42;;;;;;;10.35;5.75;;;;;;;;;;5025270;28;20498;-80
2022/05/08 02:27:08;;;;;;;17.98;6.30;;;;;;;;;;5023745;28;20433;-80
2022/05/08 02:29:34;;;;;;;15.43;5.85;;;;;;;;;;5026032;28;20432;-80
2022/05/08 02:32:02;;;;;;;12.80;5.38;;;;;;;;;;5024331;28;20959;-80
2022/05/08 02:34:29;;;;;;;16.38;6.20;;;;;;;;;;5025611;28;20471;-80
2022/05/08 02:36:55;;;;;;;14.00;5.50;;;;;;;;;;5026068;28;20494;-81
2022/05/08 02:39:21;;;;;;;17.67;5.60;;;;;;;;;;5020374;28;20434;-80
2022/05/08 02:41:48;;;;;;;15.25;5.50;;;;;;;;;;5021179;28;20435;-79
2022/05/08 02:44:14;;;;;;;14.32;6.00;;;;;;;;;;5024088;28;20418;-80
2022/05/08 02:46:40;;;;;;;15.55;5.68;;;;;;;;;;5029501;28;20429;-80
2022/05/08 02:49:08;;;;;;;13.07;5.40;;;;;;;;;;5023795;28;20479;-80
2022/05/08 02:51:34;;;;;;;16.00;6.47;;;;;;;;;;5023253;28;20495;-80
2022/05/08 02:54:00;;;;;;;13.95;5.72;;;;;;;;;;5027743;28;20425;-81
2022/05/08 02:59:10;;;;;;;10.13;5.63;;;;;;;;;;5027365;28;20447;-80
2022/05/08 03:01:37;;;;;;;10.43;5.40;;;;;;;;;;5029419;28;20515;-80
2022/05/08 03:04:03;;;;;;;12.40;5.90;;;;;;;;;;5030866;28;20416;-80
2022/05/08 03:06:31;;;;;;;13.50;5.70;;;;;;;;;;5028621;28;20430;-80
2022/05/08 03:08:57;;;;;;;13.88;5.93;;;;;;;;;;5026348;28;20428;-80
2022/05/08 03:11:26;;;;;;;14.15;5.70;;;;;;;;;;5028807;28;20792;-80
2022/05/08 03:13:53;;;;;;;13.88;5.70;;;;;;;;;;5026611;28;20421;-79
2022/05/08 03:16:19;;;;;;;13.73;5.60;;;;;;;;;;5027048;28;20428;-81
2022/05/08 03:18:46;;;;;;;15.37;6.47;;;;;;;;;;5026756;28;21319;-80
2022/05/08 03:21:13;;;;;;;11.65;5.70;;;;;;;;;;5024193;28;20425;-80
2022/05/08 03:23:41;;;;;;;15.77;6.33;;;;;;;;;;5027856;28;20514;-79
2022/05/08 03:26:08;;;;;;;15.38;6.35;;;;;;;;;;5024382;28;20430;-80
2022/05/08 03:28:34;;;;;;;10.52;5.28;;;;;;;;;;5023957;28;21455;-79
2022/05/08 03:31:01;;;;;;;11.55;5.85;;;;;;;;;;5024442;28;20438;-80
2022/05/08 03:33:28;;;;;;;15.43;6.43;;;;;;;;;;5026923;28;20427;-79
2022/05/08 03:35:54;;;;;;;10.80;5.30;;;;;;;;;;5024431;28;20461;-81
2022/05/08 03:38:20;;;;;;;14.68;5.90;;;;;;;;;;5025722;28;20430;-81
2022/05/08 03:40:48;;;;;;;16.13;6.05;;;;;;;;;;5025029;28;20437;-81
2022/05/08 03:43:14;;;;;;;10.80;5.65;;;;;;;;;;5026900;28;20418;-79
2022/05/08 03:45:41;;;;;;;16.20;6.13;;;;;;;;;;5026059;28;20425;-80
2022/05/08 03:48:08;;;;;;;11.50;5.70;;;;;;;;;;5028111;28;20419;-79
2022/05/08 03:50:34;;;;;;;12.60;6.03;;;;;;;;;;5022626;28;20527;-80
2022/05/08 03:53:01;;;;;;;13.00;5.90;;;;;;;;;;5024161;28;20440;-80
2022/05/08 03:55:28;;;;;;;13.55;5.00;;;;;;;;;;5025290;28;20526;-80
2022/05/08 03:57:55;;;;;;;16.35;6.40;;;;;;;;;;5022635;28;20428;-80
2022/05/08 04:00:22;;;;;;;11.30;5.10;;;;;;;;;;5020585;28;20438;-80
2022/05/08 04:02:48;;;;;;;13.02;5.60;;;;;;;;;;5025180;28;20415;-80
2022/05/08 04:05:15;;;;;;;12.65;6.00;;;;;;;;;;5028739;28;20423;-82
2022/05/08 04:07:41;;;;;;;9.85;5.18;;;;;;;;;;5025126;28;20443;-80
2022/05/08 04:10:08;;;;;;;13.70;6.10;;;;;;;;;;5023142;28;20918;-79
2022/05/08 04:12:35;;;;;;;17.02;5.68;;;;;;;;;;5025712;28;20501;-80
2022/05/08 04:15:02;;;;;;;12.35;6.50;;;;;;;;;;5027367;28;20525;-80
2022/05/08 04:17:29;;;;;;;13.30;6.33;;;;;;;;;;5025059;28;20432;-80
2022/05/08 04:19:56;;;;;;;12.70;5.32;;;;;;;;;;5028358;28;20462;-80
2022/05/08 04:25:07;;;;;;;11.20;6.38;;;;;;;;;;5025270;28;20501;-81
2022/05/08 04:27:35;;;;;;;11.93;5.97;;;;;;;;;;5023528;28;20440;-80
2022/05/08 04:30:03;;;;;;;11.68;5.55;;;;;;;;;;5022199;28;20428;-80
2022/05/08 04:32:29;;;;;;;12.00;5.43;;;;;;;;;;5018363;28;20439;-80
2022/05/08 04:34:55;;;;;;;16.33;5.78;;;;;;;;;;5025199;28;20426;-80
2022/05/08 04:37:22;;;;;;;12.90;6.32;;;;;;;;;;5026798;28;20438;-79
2022/05/08 04:39:48;;;;;;;11.48;5.10;;;;;;;;;;5020302;28;20440;-80
2022/05/08 04:42:14;;;;;;;14.52;5.70;;;;;;;;;;5025614;28;20430;-80
2022/05/08 04:44:40;;;;;;;13.77;6.20;;;;;;;;;;5024777;28;20932;-80
2022/05/08 04:47:08;;;;;;;15.38;6.80;;;;;;;;;;5022832;28;20455;-80
2022/05/08 04:49:34;;;;;;;11.70;5.37;;;;;;;;;;5018947;28;20493;-80
2022/05/08 04:52:01;;;;;;;16.35;6.50;;;;;;;;;;5024363;28;20448;-80
2022/05/08 04:54:27;;;;;;;11.13;7.00;;;;;;;;;;5023529;28;20511;-80
2022/05/08 04:56:53;;;;;;;10.60;6.05;;;;;;;;;;5024568;28;20428;-80
2022/05/08 04:59:19;;;;;;;14.73;6.53;;;;;;;;;;5024306;28;20468;-80
2022/05/08 05:01:46;;;;;;;13.68;6.15;;;;;;;;;;5019622;28;20432;-79
2022/05/08 05:04:13;;;;;;;13.55;6.70;;;;;;;;;;5022454;28;20420;-80
2022/05/08 05:06:41;;;;;;;21.27;8.02;;;;;;;;;;5022688;28;20427;-80
2022/05/08 05:09:07;;;;;;;16.65;7.25;;;;;;;;;;5019960;28;20671;-81
2022/05/08 05:11:33;;;;;;;16.17;7.53;;;;;;;;;;5021680;28;20448;-80
2022/05/08 05:13:59;;;;;;;13.35;7.25;;;;;;;;;;5024725;28;20416;-80
2022/05/08 05:16:26;;;;;;;16.92;8.32;;;;;;;;;;5019897;28;20436;-80
2022/05/08 05:18:52;;;;;;;13.38;7.80;;;;;;;;;;5018559;28;20537;-80
2022/05/08 05:21:19;;;;;;;19.83;8.60;;;;;;;;;;5024612;28;20410;-80
2022/05/08 05:23:46;;;;;;;16.30;7.90;;;;;;;;;;5021814;28;20435;-80
2022/05/08 05:26:12;;;;;;;19.00;8.52;;;;;;;;;;5024049;28;20399;-80
2022/05/08 05:28:38;;;;;;;18.23;7.90;;;;;;;;;;5023589;28;20427;-79
2022/05/08 05:31:05;;;;;;;15.40;8.20;;;;;;;;;;5022055;28;20423;-80
2022/05/08 05:33:31;;;;;;;14.82;8.13;;;;;;;;;;5023671;28;20429;-80
2022/05/08 05:35:57;;;;;;;18.88;7.97;;;;;;;;;;5021661;28;20444;-79
2022/05/08 05:38:25;;;;;;;20.75;8.10;;;;;;;;;;5022301;28;20428;-80
2022/05/08 05:40:51;;;;;;;20.35;8.43;;;;;;;;;;5021639;28;20431;-80
2022/05/08 05:43:17;;;;;;;16.67;7.85;;;;;;;;;;5021790;28;20430;-80
2022/05/08 05:45:44;;;;;;;14.13;7.13;;;;;;;;;;5021661;28;20434;-80
2022/05/08 05:48:09;;;;;;;14.70;7.35;;;;;;;;;;5020808;28;20419;-79
2022/05/08 05:50:37;;;;;;;18.10;7.32;;;;;;;;;;5020687;28;20546;-80
2022/05/08 05:53:03;;;;;;;15.90;7.68;;;;;;;;;;5023754;28;20452;-80
2022/05/08 05:55:31;;;;;;;15.35;6.93;;;;;;;;;;5022687;28;20462;-79
2022/05/08 05:57:57;;;;;;;15.45;6.57;;;;;;;;;;5023815;28;20424;-79
2022/05/08 06:00:23;;;;;;;16.63;5.88;;;;;;;;;;5018895;28;20436;-78
2022/05/08 06:02:50;;;;;;;16.20;5.78;;;;;;;;;;5024735;28;20460;-80
2022/05/08 06:05:16;;;;;;;10.20;4.95;;;;;;;;;;5024586;28;20441;-80
2022/05/08 06:07:42;;;;;;;12.55;4.82;;;;;;;;;;5023452;28;20391;-80
2022/05/08 06:10:10;;;;;;;18.17;5.15;;;;;;;;;;5026557;28;20436;-80
2022/05/08 06:12:38;;;;;;;10.60;4.45;;;;;;;;;;5021212;28;20445;-79
2022/05/08 06:15:06;;;;;;;10.18;4.43;;;;;;;;;;5023243;28;20431;-80
2022/05/08 06:17:32;;;;;;;17.40;5.10;;;;;;;;;;5019640;28;20439;-80
2022/05/08 06:19:58;;;;;;;12.65;4.10;;;;;;;;;;5022258;28;20459;-79
2022/05/08 06:22:25;;;;;;;12.90;3.85;;;;;;;;;;5026381;28;20436;-80
2022/05/08 06:24:51;;;;;;;11.87;4.20;;;;;;;;;;5030057;28;20428;-80
2022/05/08 06:27:17;;;;;;;11.00;4.05;;;;;;;;;;5029820;28;20426;-80
2022/05/08 06:29:45;;;;;;;9.68;3.90;;;;;;;;;;5028507;28;20499;-81
2022/05/08 06:32:11;;;;;;;11.63;4.13;;;;;;;;;;5021061;28;20504;-79
2022/05/08 06:34:38;;;;;;;12.52;4.05;;;;;;;;;;5026691;28;20430;-82
2022/05/08 06:37:04;;;;;;;10.18;4.10;;;;;;;;;;5026319;28;20447;-79
2022/05/08 06:39:32;;;;;;;11.32;3.90;;;;;;;;;;5028911;28;20455;-80
2022/05/08 06:41:59;;;;;;;10.00;3.70;;;;;;;;;;5027580;28;20790;-79
2022/05/08 06:44:25;;;;;;;15.13;4.20;;;;;;;;;;5026363;28;20420;-79
2022/05/08 06:46:54;;;;;;;13.18;4.53;;;;;;;;;;5024814;28;20426;-81
2022/05/08 06:49:20;;;;;;;10.70;4.15;;;;;;;;;;5028146;28;20424;-81
2022/05/08 06:51:47;;;;;;;13.80;4.50;;;;;;;;;;5027113;28;20424;-79
2022/05/08 06:54:13;;;;;;;13.70;4.65;;;;;;;;;;5025132;28;20441;-81
2022/05/08 06:56:41;;;;;;;10.30;3.63;;;;;;;;;;5026579;28;20509;-80
2022/05/08 07:01:53;;;;;;;13.00;3.92;;;;;;;;;;5026288;28;20426;-80
2022/05/08 07:04:19;;;;;;;12.48;5.03;;;;;;;;;;5025886;28;20429;-80
2022/05/08 07:06:46;;;;;;;9.85;3.63;;;;;;;;;;5027303;28;20924;-80
2022/05/08 07:09:13;;;;;;;13.93;3.95;;;;;;;;;;5027348;28;20425;-81
2022/05/08 07:11:41;;;;;;;13.95;4.05;;;;;;;;;;5027069;28;20433;-78
2022/05/08 07:14:07;;;;;;;14.98;4.80;;;;;;;;;;5027034;28;20428;-80
2022/05/08 07:16:34;;;;;;;10.80;4.10;;;;;;;;;;5021043;28;20442;-80
2022/05/08 07:19:01;;;;;;;16.30;3.85;;;;;;;;;;5023277;28;20432;-81
2022/05/08 07:21:28;;;;;;;9.98;3.60;;;;;;;;;;5026419;28;20428;-81
2022/05/08 07:23:55;;;;;;;20.02;3.90;;;;;;;;;;5024775;28;20848;-80
2022/05/08 07:26:21;;;;;;;13.05;3.92;;;;;;;;;;5028167;28;20416;-80
2022/05/08 07:28:47;;;;;;;17.00;4.40;;;;;;;;;;5029746;28;20418;-79
2022/05/08 07:31:14;;;;;;;13.05;4.28;;;;;;;;;;5011317;28;20423;-81
2022/05/08 07:33:40;;;;;;;13.65;3.92;;;;;;;;;;5010218;28;20440;-80
2022/05/08 07:36:13;;;;;;;14.27;4.32;;;;;;;;;;5010516;28;20415;-81
2022/05/08 07:38:40;;;;;;;13.40;3.85;;;;;;;;;;5014539;28;20460;-82
2022/05/08 07:41:06;;;;;;;20.05;4.03;;;;;;;;;;5018881;28;20416;-81
2022/05/08 07:43:32;;;;;;;13.15;4.32;;;;;;;;;;5026647;28;20472;-81
2022/05/08 07:45:59;;;;;;;12.40;3.80;;;;;;;;;;5019338;28;20513;-80
2022/05/08 07:48:25;;;;;;;16.08;3.88;;;;;;;;;;5025064;28;20486;-81
2022/05/08 07:50:52;;;;;;;13.57;3.90;;;;;;;;;;5024042;28;20444;-82
2022/05/08 07:53:19;;;;;;;13.60;3.70;;;;;;;;;;5025018;28;20453;-81
2022/05/08 07:55:51;;;;;;;14.77;3.97;;;;;;;;;;5025232;28;20420;-81
2022/05/08 07:58:17;;;;;;;11.75;4.00;;;;;;;;;;5032569;23;21021;-84
2022/05/08 08:00:44;;;;;;;16.60;4.40;;;;;;;;;;5018175;28;20938;-86
2022/05/08 08:03:10;;;;;;;15.43;3.55;;;;;;;;;;5016463;28;20857;-84
2022/05/08 08:05:36;;;;;;;11.88;4.00;;;;;;;;;;5016471;28;20978;-84
2022/05/08 08:08:03;;;;;;;12.70;3.75;;;;;;;;;;5014646;28;20416;-85
2022/05/08 08:10:30;;;;;;;13.17;3.90;;;;;;;;;;5016267;28;20436;-85
2022/05/08 08:12:57;;;;;;;10.60;3.92;;;;;;;;;;5014730;28;20427;-85
2022/05/08 08:15:23;;;;;;;13.35;4.07;;;;;;;;;;5016209;28;20442;-85
2022/05/08 08:17:49;;;;;;;15.63;4.10;;;;;;;;;;5013836;28;21099;-84
2022/05/08 08:20:16;;;;;;;11.70;3.88;;;;;;;;;;5010814;28;20446;-84
2022/05/08 08:22:42;;;;;;;13.05;3.90;;;;;;;;;;5017650;28;20441;-85
2022/05/08 08:25:08;;;;;;;15.25;4.13;;;;;;;;;;5014409;28;20465;-84
2022/05/08 08:27:36;;;;;;;9.60;4.10;;;;;;;;;;5014567;28;20918;-84
2022/05/08 08:30:03;;;;;;;14.20;3.80;;;;;;;;;;5012569;28;20447;-84
2022/05/08 08:32:31;;;;;;;8.70;3.50;;;;;;;;;;5014208;28;20506;-84
2022/05/08 08:34:57;;;;;;;15.27;4.32;;;;;;;;;;5011539;28;20436;-84
2022/05/08 08:37:24;;;;;;;9.60;3.80;;;;;;;;;;5014941;28;20431;-84
2022/05/08 08:39:50;;;;;;;11.88;3.85;;;;;;;;;;5012863;28;20489;-85
2022/05/08 08:42:22;;;;;;;11.43;3.55;;;;;;;;;;5014532;28;20439;-84
2022/05/08 08:47:45;;;;;;;10.90;3.10;;;;;;;;;;5013878;28;20433;-84
2022/05/08 08:50:12;;;;;;;16.50;4.03;;;;;;;;;;5014407;28;20438;-84
2022/05/08 08:52:38;;;;;;;15.20;4.07;;;;;;;;;;5017217;28;20557;-84
2022/05/08 08:55:06;;;;;;;12.18;3.63;;;;;;;;;;5010796;28;20438;-84
2022/05/08 08:57:33;;;;;;;16.10;3.63;;;;;;;;;;5010061;28;20487;-85
2022/05/08 09:00:00;;;;;;;11.95;4.40;;;;;;;;;;5006097;28;20436;-84
2022/05/08 09:02:29;;;;;;;13.13;3.85;;;;;;;;;;5009656;28;20464;-84
2022/05/08 09:04:57;;;;;;;12.45;4.07;;;;;;;;;;5011593;28;21020;-85
2022/05/08 09:07:35;;;;;;;8.40;3.50;;;;;;;;;;5014118;28;20434;-83
2022/05/08 09:10:09;;;;;;;11.75;3.88;;;;;;;;;;5012341;28;20429;-84
2022/05/08 09:12:35;;;;;;;10.60;3.43;;;;;;;;;;5012629;28;20427;-85
2022/05/08 09:15:16;;;;;;;11.77;3.55;;;;;;;;;;5010291;28;20471;-85
2022/05/08 09:17:43;;;;;;;12.18;3.78;;;;;;;;;;5010394;28;20572;-84
2022/05/08 09:20:23;;;;;;;14.55;4.13;;;;;;;;;;5015254;28;20432;-85
2022/05/08 09:22:58;;;;;;;13.68;4.30;;;;;;;;;;5011665;28;20448;-85
2022/05/08 09:25:24;;;;;;;14.70;3.87;;;;;;;;;;5015427;28;20468;-84
2022/05/08 09:28:00;;;;;;;11.67;3.83;;;;;;;;;;5010336;28;20422;-84
2022/05/08 09:30:27;;;;;;;14.10;3.90;;;;;;;;;;5011141;28;20467;-84
2022/05/08 09:32:53;;;;;;;9.90;3.75;;;;;;;;;;5007951;28;20433;-84
2022/05/08 09:35:20;;;;;;;12.95;3.78;;;;;;;;;;5012325;28;20486;-84
2022/05/08 09:37:53;;;;;;;10.65;3.60;;;;;;;;;;5012571;28;20448;-83
2022/05/08 09:40:20;;;;;;;11.90;3.30;;;;;;;;;;5013963;28;20459;-85
2022/05/08 09:42:46;;;;;;;12.90;4.10;;;;;;;;;;5011181;28;20459;-85
2022/05/08 09:45:13;;;;;;;12.85;3.20;;;;;;;;;;5012119;28;20911;-83
2022/05/08 09:47:41;;;;;;;12.15;3.63;;;;;;;;;;5005952;28;20437;-84
2022/05/08 09:50:09;;;;;;;12.57;3.75;;;;;;;;;;5011830;28;20442;-84
2022/05/08 09:52:38;;;;;;;15.88;3.50;;;;;;;;;;5012744;28;20417;-84
2022/05/08 09:55:05;;;;;;;8.95;3.47;;;;;;;;;;5008664;28;20552;-84
2022/05/08 09:57:33;;;;;;;13.32;3.80;;;;;;;;;;5011023;28;20431;-84
2022/05/08 09:59:59;;;;;;;12.67;3.97;;;;;;;;;;5009154;28;20436;-84
2022/05/08 10:02:26;;;;;;;13.23;4.15;;;;;;;;;;5005901;28;20464;-84
2022/05/08 10:04:53;;;;;;;11.60;4.18;;;;;;;;;;5012343;28;20524;-84
2022/05/08 10:07:21;;;;;;;9.52;3.40;;;;;;;;;;5010929;28;20934;-84
2022/05/08 10:15:16;;;;;;;11.82;3.65;;;;;;;;;;5009686;28;20443;-83
2022/05/08 10:17:43;;;;;;;8.43;3.50;;;;;;;;;;5007031;28;21010;-82
2022/05/08 10:20:11;;;;;;;9.83;3.47;;;;;;;;;;5009079;28;20437;-84
2022/05/08 10:22:47;;;;;;;10.57;3.55;;;;;;;;;;5007453;28;20957;-85
2022/05/08 10:25:15;;;;;;;11.93;3.67;;;;;;;;;;5010390;28;20457;-85
2022/05/08 10:27:43;;;;;;;9.35;3.80;;;;;;;;;;5008680;28;20480;-85
2022/05/08 10:30:33;;;;;;;14.75;4.20;;;;;;;;;;5005418;28;20489;-84
2022/05/08 10:33:00;;;;;;;10.50;3.95;;;;;;;;;;5003284;28;20443;-84
2022/05/08 10:35:29;;;;;;;10.83;3.83;;;;;;;;;;5009957;28;20460;-84
2022/05/08 10:38:16;;;;;;;11.30;3.50;;;;;;;;;;5003719;28;20514;-83
2022/05/08 10:40:43;;;;;;;14.82;3.80;;;;;;;;;;5005108;28;20546;-84
2022/05/08 10:43:32;;;;;;;12.95;4.30;;;;;;;;;;5009281;28;20443;-85
2022/05/08 10:46:13;;;;;;;12.13;3.60;;;;;;;;;;5006641;28;20429;-85
2022/05/08 10:48:39;;;;;;;11.95;3.95;;;;;;;;;;5006810;28;20428;-85
2022/05/08 10:51:07;;;;;;;9.50;3.40;;;;;;;;;;5006926;28;20776;-84
2022/05/08 10:53:34;;;;;;;7.82;3.58;;;;;;;;;;5003142;28;20441;-85
2022/05/08 10:56:02;;;;;;;13.02;3.70;;;;;;;;;;5007108;28;20413;-85
2022/05/08 10:58:28;;;;;;;13.02;3.60;;;;;;;;;;5004303;28;20444;-85
2022/05/08 11:01:02;;;;;;;7.20;3.33;;;;;;;;;;5009202;28;20408;-85
2022/05/08 11:03:29;;;;;;;11.07;3.88;;;;;;;;;;5006636;28;20442;-85
2022/05/08 11:05:56;;;;;;;9.82;3.58;;;;;;;;;;5007913;28;20549;-85
2022/05/08 11:08:29;;;;;;;13.38;4.38;;;;;;;;;;5004052;28;20436;-86
2022/05/08 11:11:02;;;;;;;9.13;3.80;;;;;;;;;;5010851;28;20409;-85
2022/05/08 11:13:37;;;;;;;8.63;3.20;;;;;;;;;;5015038;28;20424;-84
2022/05/08 11:16:03;;;;;;;9.82;3.97;;;;;;;;;;5011550;28;20409;-85
2022/05/08 11:18:29;;;;;;;11.60;3.80;;;;;;;;;;5011991;28;20535;-87
2022/05/08 11:20:57;;;;;;;9.00;3.25;;;;;;;;;;5012001;28;20752;-84
2022/05/08 11:23:25;;;;;;;10.05;3.70;;;;;;;;;;5011486;28;20463;-86
2022/05/08 11:25:53;;;;;;;9.35;3.42;;;;;;;;;;5012602;28;20463;-85
2022/05/08 11:28:20;;;;;;;12.10;3.63;;;;;;;;;;5011285;28;20437;-86
2022/05/08 11:30:47;;;;;;;11.57;3.50;;;;;;;;;;5013742;28;20802;-84
2022/05/08 11:36:05;;;;;;;12.98;3.50;;;;;;;;;;5011291;28;20472;-83
2022/05/08 11:38:42;;;;;;;7.90;3.20;;;;;;;;;;5014372;28;20428;-84
2022/05/08 11:41:13;;;;;;;10.77;3.38;;;;;;;;;;5011692;28;20418;-85
2022/05/08 11:43:40;;;;;;;9.93;3.40;;;;;;;;;;5013916;28;20542;-84
2022/05/08 11:46:08;;;;;;;11.02;3.58;;;;;;;;;;5011786;28;21577;-84
2022/05/08 11:48:34;;;;;;;11.80;3.30;;;;;;;;;;5009088;28;20520;-84
2022/05/08 11:51:01;;;;;;;10.00;3.10;;;;;;;;;;5008862;28;20424;-83
2022/05/08 11:53:27;;;;;;;9.50;3.75;;;;;;;;;;5012981;28;20433;-84
2022/05/08 11:55:53;;;;;;;9.50;3.92;;;;;;;;;;5012163;28;20830;-83
2022/05/08 11:58:32;;;;;;;8.50;3.60;;;;;;;;;;5009348;28;20469;-84
2022/05/08 12:00:58;;;;;;;11.63;3.47;;;;;;;;;;5012534;28;20426;-85
2022/05/08 12:03:28;;;;;;;11.82;3.33;;;;;;;;;;5012558;28;20434;-84
2022/05/08 12:06:09;;;;;;;12.10;3.70;;;;;;;;;;5010691;28;20903;-84
2022/05/08 12:08:36;;;;;;;11.15;3.88;;;;;;;;;;5012029;28;20465;-86
2022/05/08 12:11:02;;;;;;;9.20;4.30;;;;;;;;;;5015449;28;20440;-84
2022/05/08 12:13:33;;;;;;;9.60;4.18;;;;;;;;;;5012883;28;20441;-85
2022/05/08 12:16:12;;;;;;;10.35;3.65;;;;;;;;;;5011494;28;20931;-84
2022/05/08 12:19:01;;;;;;;9.93;3.60;;;;;;;;;;5011319;28;20449;-84
2022/05/08 12:21:28;;;;;;;9.38;3.55;;;;;;;;;;5009848;28;20460;-86
2022/05/08 12:23:56;;;;;;;8.73;3.60;;;;;;;;;;5004606;28;21164;-85
2022/05/08 12:26:22;;;;;;;8.10;3.42;;;;;;;;;;5003513;28;20512;-86
2022/05/08 12:28:49;;;;;;;13.27;4.00;;;;;;;;;;5006628;28;20490;-87
2022/05/08 12:31:17;;;;;;;10.38;3.70;;;;;;;;;;5012577;28;20417;-84
2022/05/08 12:33:44;;;;;;;10.00;3.50;;;;;;;;;;5010681;28;20956;-84
2022/05/08 12:36:10;;;;;;;7.22;3.20;;;;;;;;;;5009688;28;20921;-83
2022/05/08 12:38:36;;;;;;;9.05;3.72;;;;;;;;;;5012140;28;20413;-84
2022/05/08 12:41:03;;;;;;;10.05;3.28;;;;;;;;;;5011236;28;20412;-83
2022/05/08 12:43:29;;;;;;;8.88;3.55;;;;;;;;;;5009356;28;20420;-84
2022/05/08 12:45:55;;;;;;;11.93;4.03;;;;;;;;;;5007026;28;20408;-83
2022/05/08 12:48:23;;;;;;;10.50;3.58;;;;;;;;;;5011078;28;20476;-84
2022/05/08 12:50:50;;;;;;;7.00;2.88;;;;;;;;;;5005892;28;20467;-84
2022/05/08 12:53:17;;;;;;;10.10;3.80;;;;;;;;;;5009042;28;20531;-85
2022/05/08 12:55:43;;;;;;;11.43;3.60;;;;;;;;;;5011212;28;20492;-83
2022/05/08 13:00:53;;;;;;;9.55;4.00;;;;;;;;;;5007326;28;20479;-84
2022/05/08 13:03:19;;;;;;;11.52;3.70;;;;;;;;;;5006831;28;20467;-84
2022/05/08 13:05:47;;;;;;;12.27;3.72;;;;;;;;;;5004005;28;20438;-87
2022/05/08 13:08:13;;;;;;;9.60;3.47;;;;;;;;;;5008479;28;20424;-84
2022/05/08 13:10:39;;;;;;;10.63;4.28;;;;;;;;;;5010136;28;20428;-84
2022/05/08 13:13:06;;;;;;;7.05;3.38;;;;;;;;;;5010702;28;20420;-85
2022/05/08 13:15:32;;;;;;;8.80;3.40;;;;;;;;;;5010476;28;20439;-85
2022/05/08 13:17:58;;;;;;;11.18;3.47;;;;;;;;;;5004484;28;20969;-84
2022/05/08 13:20:25;;;;;;;11.93;3.65;;;;;;;;;;5011671;28;20452;-85
2022/05/08 13:22:52;;;;;;;7.07;3.97;;;;;;;;;;5010276;28;20421;-83
2022/05/08 13:25:19;;;;;;;9.32;3.67;;;;;;;;;;5011799;28;20420;-85
2022/05/08 13:27:45;;;;;;;8.30;3.30;;;;;;;;;;5008157;28;20927;-85
2022/05/08 13:30:12;;;;;;;7.72;3.42;;;;;;;;;;5009623;28;20429;-84
2022/05/08 13:32:39;;;;;;;11.15;4.10;;;;;;;;;;5007046;28;20444;-87
2022/05/08 13:35:06;;;;;;;10.93;3.70;;;;;;;;;;5008742;28;20442;-84
2022/05/08 13:37:32;;;;;;;10.43;3.10;;;;;;;;;;5011344;28;20420;-86
2022/05/08 13:40:00;;;;;;;6.93;3.38;;;;;;;;;;5005122;28;20438;-83
2022/05/08 13:42:26;;;;;;;9.75;3.50;;;;;;;;;;5008331;28;20946;-86
2022/05/08 13:44:55;;;;;;;10.75;3.58;;;;;;;;;;5011771;28;20424;-85
2022/05/08 13:47:22;;;;;;;8.35;2.75;;;;;;;;;;5009473;28;20475;-84
2022/05/08 13:49:48;;;;;;;11.73;3.50;;;;;;;;;;4999030;28;20466;-85
2022/05/08 13:52:14;;;;;;;9.93;3.20;;;;;;;;;;5005176;28;20768;-84
2022/05/08 13:54:43;;;;;;;7.82;3.30;;;;;;;;;;5008443;28;20838;-85
2022/05/08 13:57:10;;;;;;;8.40;3.85;;;;;;;;;;5009208;28;20491;-83
2022/05/08 13:59:37;;;;;;;8.50;3.20;;;;;;;;;;5009324;28;20427;-84
2022/05/08 14:02:03;;;;;;;10.25;3.30;;;;;;;;;;5021899;23;20428;-83
2022/05/08 14:04:29;;;;;;;7.32;3.08;;;;;;;;;;5005690;28;20441;-84
2022/05/08 14:06:56;;;;;;;5.65;3.38;;;;;;;;;;5003772;28;20462;-82
2022/05/08 14:09:22;;;;;;;7.75;2.95;;;;;;;;;;5003027;28;20417;-81
2022/05/08 14:11:52;;;;;;;11.02;3.35;;;;;;;;;;5001404;28;20416;-81
2022/05/08 14:14:25;;;;;;;8.75;3.60;;;;;;;;;;5000288;28;20836;-82
2022/05/08 14:16:51;;;;;;;10.95;3.67;;;;;;;;;;4999329;28;20414;-82
2022/05/08 14:19:17;;;;;;;10.65;3.80;;;;;;;;;;5001351;28;20436;-81
2022/05/08 14:21:44;;;;;;;9.98;4.10;;;;;;;;;;4999410;28;20480;-81
2022/05/08 14:24:10;;;;;;;10.02;3.50;;;;;;;;;;4999439;28;20438;-81
2022/05/08 14:26:36;;;;;;;8.95;3.00;;;;;;;;;;4999175;28;20425;-81
2022/05/08 14:29:02;;;;;;;9.73;3.20;;;;;;;;;;4998723;28;20421;-82
2022/05/08 14:36:58;;;;;;;9.68;3.20;;;;;;;;;;4998499;28;20422;-82
2022/05/08 14:39:24;;;;;;;9.20;3.58;;;;;;;;;;4998931;28;20424;-81
2022/05/08 14:41:50;;;;;;;6.05;3.20;;;;;;;;;;5001798;28;20447;-81
2022/05/08 14:44:16;;;;;;;11.60;3.60;;;;;;;;;;4999304;28;20433;-80
2022/05/08 14:46:44;;;;;;;7.03;3.00;;;;;;;;;;5003183;28;20425;-82
2022/05/08 14:49:10;;;;;;;9.85;3.75;;;;;;;;;;5002084;28;20430;-81
2022/05/08 14:51:37;;;;;;;10.55;3.60;;;;;;;;;;5002588;28;20451;-81
2022/05/08 14:54:03;;;;;;;8.93;3.15;;;;;;;;;;5004272;28;21475;-81
2022/05/08 14:56:29;;;;;;;8.00;2.85;;;;;;;;;;5002423;28;20415;-81
2022/05/08 14:58:56;;;;;;;10.13;3.05;;;;;;;;;;5005063;28;20519;-81
2022/05/08 15:01:22;;;;;;;9.27;3.42;;;;;;;;;;5001970;28;20838;-81
2022/05/08 15:03:49;;;;;;;6.37;2.80;;;;;;;;;;5003241;28;20459;-80